sensor_id;sensor_type;location;lat;lon;timestamp;pressure;altitude;pressure_sealevel;temperature;humidity
49473;BME280;67434;50.956;6.918;2023-05-12T00:00:57;100939.75;;;12.53;92.96
49473;BME280;67434;50.956;6.918;2023-05-12T00:03:23;100940.28;;;12.50;93.27
49473;BME280;67434;50.956;6.918;2023-05-12T00:05:48;100947.63;;;12.55;93.02
49473;BME280;67434;50.956;6.918;2023-05-12T00:08:14;100935.94;;;12.55;92.66
49473;BME280;67434;50.956;6.918;2023-05-12T00:10:42;100938.69;;;12.60;93.14
49473;BME280;67434;50.956;6.918;2023-05-12T00:13:07;100939.72;;;12.48;93.05
49473;BME280;67434;50.956;6.918;2023-05-12T00:15:33;100951.13;;;12.50;93.51
49473;BME280;67434;50.956;6.918;2023-05-12T00:18:00;100938.13;;;12.58;93.68
49473;BME280;67434;50.956;6.918;2023-05-12T00:20:25;100937.66;;;12.66;93.24
49473;BME280;67434;50.956;6.918;2023-05-12T00:22:53;100933.25;;;12.60;93.50
49473;BME280;67434;50.956;6.918;2023-05-12T00:25:19;100936.25;;;12.63;93.69
49473;BME280;67434;50.956;6.918;2023-05-12T00:27:44;100941.44;;;12.65;93.53
49473;BME280;67434;50.956;6.918;2023-05-12T00:30:10;100942.25;;;12.65;93.83
49473;BME280;67434;50.956;6.918;2023-05-12T00:32:35;100942.03;;;12.77;93.20
49473;BME280;67434;50.956;6.918;2023-05-12T00:35:01;100932.78;;;12.73;93.53
49473;BME280;67434;50.956;6.918;2023-05-12T00:37:26;100942.31;;;12.80;93.55
49473;BME280;67434;50.956;6.918;2023-05-12T00:39:52;100933.34;;;12.85;93.50
49473;BME280;67434;50.956;6.918;2023-05-12T00:42:17;100935.53;;;12.88;93.29
49473;BME280;67434;50.956;6.918;2023-05-12T00:44:43;100933.38;;;12.95;92.83
49473;BME280;67434;50.956;6.918;2023-05-12T00:47:08;100932.28;;;12.96;93.18
49473;BME280;67434;50.956;6.918;2023-05-12T00:49:33;100930.13;;;12.88;93.61
49473;BME280;67434;50.956;6.918;2023-05-12T00:52:01;100933.63;;;12.83;93.82
49473;BME280;67434;50.956;6.918;2023-05-12T00:54:27;100923.06;;;12.87;94.07
49473;BME280;67434;50.956;6.918;2023-05-12T00:56:53;100925.50;;;12.83;94.37
49473;BME280;67434;50.956;6.918;2023-05-12T00:59:19;100921.69;;;12.84;94.66
49473;BME280;67434;50.956;6.918;2023-05-12T01:01:45;100925.78;;;12.92;94.19
49473;BME280;67434;50.956;6.918;2023-05-12T01:04:11;100920.63;;;12.91;94.04
49473;BME280;67434;50.956;6.918;2023-05-12T01:06:44;100921.44;;;12.96;94.23
49473;BME280;67434;50.956;6.918;2023-05-12T01:09:10;100917.91;;;12.91;94.17
49473;BME280;67434;50.956;6.918;2023-05-12T01:11:36;100913.34;;;13.01;93.59
49473;BME280;67434;50.956;6.918;2023-05-12T01:14:02;100917.69;;;13.07;92.85
49473;BME280;67434;50.956;6.918;2023-05-12T01:16:30;100917.66;;;12.97;93.55
49473;BME280;67434;50.956;6.918;2023-05-12T01:19:00;100917.63;;;12.92;93.84
49473;BME280;67434;50.956;6.918;2023-05-12T01:21:29;100914.38;;;12.90;93.87
49473;BME280;67434;50.956;6.918;2023-05-12T01:23:58;100917.09;;;12.95;93.97
49473;BME280;67434;50.956;6.918;2023-05-12T01:26:27;100916.00;;;12.96;93.90
49473;BME280;67434;50.956;6.918;2023-05-12T01:28:54;100914.97;;;13.02;93.84
49473;BME280;67434;50.956;6.918;2023-05-12T01:31:21;100896.53;;;13.09;93.28
49473;BME280;67434;50.956;6.918;2023-05-12T01:33:46;100879.16;;;13.10;92.65
49473;BME280;67434;50.956;6.918;2023-05-12T01:36:11;100872.31;;;12.93;93.64
49473;BME280;67434;50.956;6.918;2023-05-12T01:38:40;100872.59;;;12.91;93.75
49473;BME280;67434;50.956;6.918;2023-05-12T01:41:05;100866.34;;;12.80;93.91
49473;BME280;67434;50.956;6.918;2023-05-12T01:43:31;100864.72;;;12.84;93.97
49473;BME280;67434;50.956;6.918;2023-05-12T01:45:58;100869.31;;;12.74;94.28
49473;BME280;67434;50.956;6.918;2023-05-12T01:48:24;100874.47;;;12.70;94.71
49473;BME280;67434;50.956;6.918;2023-05-12T01:50:49;100885.84;;;12.67;95.06
49473;BME280;67434;50.956;6.918;2023-05-12T01:53:14;100878.53;;;12.68;95.22
49473;BME280;67434;50.956;6.918;2023-05-12T01:55:40;100884.19;;;12.61;95.41
49473;BME280;67434;50.956;6.918;2023-05-12T01:58:05;100881.19;;;12.58;95.48
49473;BME280;67434;50.956;6.918;2023-05-12T02:00:30;100883.97;;;12.78;94.43
49473;BME280;67434;50.956;6.918;2023-05-12T02:02:56;100883.44;;;12.81;94.46
49473;BME280;67434;50.956;6.918;2023-05-12T02:05:21;100886.16;;;12.86;94.11
49473;BME280;67434;50.956;6.918;2023-05-12T02:07:47;100882.34;;;12.82;94.11
49473;BME280;67434;50.956;6.918;2023-05-12T02:10:12;100896.72;;;12.82;94.55
49473;BME280;67434;50.956;6.918;2023-05-12T02:12:38;100886.72;;;12.93;93.97
49473;BME280;67434;50.956;6.918;2023-05-12T02:15:04;100893.22;;;12.87;93.85
49473;BME280;67434;50.956;6.918;2023-05-12T02:17:29;100897.00;;;12.86;94.16
49473;BME280;67434;50.956;6.918;2023-05-12T02:19:54;100893.47;;;12.80;94.45
49473;BME280;67434;50.956;6.918;2023-05-12T02:22:20;100892.38;;;12.76;94.48
49473;BME280;67434;50.956;6.918;2023-05-12T02:24:45;100886.13;;;12.76;94.82
49473;BME280;67434;50.956;6.918;2023-05-12T02:27:10;100892.66;;;12.75;95.17
49473;BME280;67434;50.956;6.918;2023-05-12T02:29:36;100891.06;;;12.94;94.37
49473;BME280;67434;50.956;6.918;2023-05-12T02:32:03;100888.03;;;12.75;94.66
49473;BME280;67434;50.956;6.918;2023-05-12T02:34:47;100885.34;;;12.80;94.85
49473;BME280;67434;50.956;6.918;2023-05-12T02:37:12;100888.31;;;12.74;94.91
49473;BME280;67434;50.956;6.918;2023-05-12T02:39:38;100895.66;;;12.83;94.84
49473;BME280;67434;50.956;6.918;2023-05-12T02:42:03;100888.31;;;12.74;95.29
49473;BME280;67434;50.956;6.918;2023-05-12T02:44:29;100890.50;;;12.82;95.03
49473;BME280;67434;50.956;6.918;2023-05-12T02:46:54;100883.44;;;12.86;94.98
49473;BME280;67434;50.956;6.918;2023-05-12T02:49:38;100880.47;;;12.88;94.83
49473;BME280;67434;50.956;6.918;2023-05-12T02:52:03;100880.47;;;12.93;94.64
49473;BME280;67434;50.956;6.918;2023-05-12T02:54:29;100886.75;;;13.08;93.42
49473;BME280;67434;50.956;6.918;2023-05-12T02:56:55;100886.16;;;12.96;93.84
49473;BME280;67434;50.956;6.918;2023-05-12T02:59:22;100876.41;;;12.95;94.17
49473;BME280;67434;50.956;6.918;2023-05-12T03:01:47;100891.09;;;13.04;93.90
49473;BME280;67434;50.956;6.918;2023-05-12T03:04:13;100874.00;;;13.04;93.24
49473;BME280;67434;50.956;6.918;2023-05-12T03:06:38;100889.47;;;13.03;93.26
49473;BME280;67434;50.956;6.918;2023-05-12T03:09:03;100882.69;;;13.01;93.63
49473;BME280;67434;50.956;6.918;2023-05-12T03:11:29;100876.97;;;13.02;93.92
49473;BME280;67434;50.956;6.918;2023-05-12T03:13:54;100879.66;;;12.97;93.89
49473;BME280;67434;50.956;6.918;2023-05-12T03:16:19;100888.88;;;12.91;94.47
49473;BME280;67434;50.956;6.918;2023-05-12T03:18:45;100884.81;;;12.89;94.15
49473;BME280;67434;50.956;6.918;2023-05-12T03:21:10;100885.34;;;12.91;93.21
49473;BME280;67434;50.956;6.918;2023-05-12T03:23:36;100890.22;;;12.89;93.19
49473;BME280;67434;50.956;6.918;2023-05-12T03:26:01;100884.25;;;12.87;93.70
49473;BME280;67434;50.956;6.918;2023-05-12T03:28:27;100885.34;;;12.80;93.96
49473;BME280;67434;50.956;6.918;2023-05-12T03:30:52;100883.44;;;12.86;93.71
49473;BME280;67434;50.956;6.918;2023-05-12T03:33:18;100879.38;;;12.83;93.65
49473;BME280;67434;50.956;6.918;2023-05-12T03:35:43;100884.53;;;12.80;93.22
49473;BME280;67434;50.956;6.918;2023-05-12T03:38:08;100877.19;;;12.80;93.25
49473;BME280;67434;50.956;6.918;2023-05-12T03:40:34;100870.13;;;12.74;93.58
49473;BME280;67434;50.956;6.918;2023-05-12T03:42:59;100881.25;;;12.78;93.79
49473;BME280;67434;50.956;6.918;2023-05-12T03:45:25;100875.00;;;12.72;93.95
49473;BME280;67434;50.956;6.918;2023-05-12T03:47:50;100872.03;;;12.79;93.84
49473;BME280;67434;50.956;6.918;2023-05-12T03:50:16;100874.47;;;12.80;93.73
49473;BME280;67434;50.956;6.918;2023-05-12T03:52:41;100874.22;;;12.87;93.18
49473;BME280;67434;50.956;6.918;2023-05-12T03:55:07;100875.31;;;12.86;93.36
49473;BME280;67434;50.956;6.918;2023-05-12T03:57:33;100874.22;;;12.87;93.36
49473;BME280;67434;50.956;6.918;2023-05-12T04:00:01;100877.47;;;12.79;93.72
49473;BME280;67434;50.956;6.918;2023-05-12T04:02:26;100883.72;;;12.84;93.67
49473;BME280;67434;50.956;6.918;2023-05-12T04:04:52;100878.00;;;12.86;93.19
49473;BME280;67434;50.956;6.918;2023-05-12T04:07:17;100885.34;;;12.86;92.26
49473;BME280;67434;50.956;6.918;2023-05-12T04:09:42;100880.19;;;12.84;92.25
49473;BME280;67434;50.956;6.918;2023-05-12T04:12:10;100884.25;;;12.87;92.06
49473;BME280;67434;50.956;6.918;2023-05-12T04:14:36;100884.00;;;12.88;91.28
49473;BME280;67434;50.956;6.918;2023-05-12T04:17:03;100888.31;;;12.84;91.58
49473;BME280;67434;50.956;6.918;2023-05-12T04:19:28;100889.41;;;12.83;91.56
49473;BME280;67434;50.956;6.918;2023-05-12T04:21:54;100897.00;;;12.91;90.49
49473;BME280;67434;50.956;6.918;2023-05-12T04:24:19;100890.22;;;12.94;90.29
49473;BME280;67434;50.956;6.918;2023-05-12T04:26:45;100903.50;;;12.85;91.31
49473;BME280;67434;50.956;6.918;2023-05-12T04:29:10;100904.59;;;12.84;90.62
49473;BME280;67434;50.956;6.918;2023-05-12T04:31:37;100903.25;;;12.81;90.69
49473;BME280;67434;50.956;6.918;2023-05-12T04:34:02;100902.97;;;12.88;90.69
49473;BME280;67434;50.956;6.918;2023-05-12T04:36:28;100900.25;;;12.83;90.51
49473;BME280;67434;50.956;6.918;2023-05-12T04:38:53;100897.00;;;12.81;90.82
49473;BME280;67434;50.956;6.918;2023-05-12T04:41:22;100911.09;;;12.78;90.28
49473;BME280;67434;50.956;6.918;2023-05-12T04:43:47;100912.19;;;12.82;89.95
49473;BME280;67434;50.956;6.918;2023-05-12T04:46:13;100911.16;;;13.03;89.29
49473;BME280;67434;50.956;6.918;2023-05-12T04:48:38;100920.63;;;12.96;89.71
49473;BME280;67434;50.956;6.918;2023-05-12T04:51:06;100918.72;;;12.91;89.82
49473;BME280;67434;50.956;6.918;2023-05-12T04:53:32;100926.84;;;12.91;89.44
49473;BME280;67434;50.956;6.918;2023-05-12T04:55:59;100925.50;;;12.99;88.98
49473;BME280;67434;50.956;6.918;2023-05-12T04:58:29;100927.97;;;13.00;88.88
49473;BME280;67434;50.956;6.918;2023-05-12T05:00:55;100924.75;;;13.03;88.81
49473;BME280;67434;50.956;6.918;2023-05-12T05:03:20;100925.03;;;13.12;88.72
49473;BME280;67434;50.956;6.918;2023-05-12T05:05:46;100933.44;;;13.15;88.47
49473;BME280;67434;50.956;6.918;2023-05-12T05:08:13;100942.69;;;13.20;88.27
49473;BME280;67434;50.956;6.918;2023-05-12T05:10:38;100947.59;;;13.23;87.63
49473;BME280;67434;50.956;6.918;2023-05-12T05:13:03;100947.06;;;13.26;86.51
49473;BME280;67434;50.956;6.918;2023-05-12T05:15:29;100946.22;;;13.25;87.19
49473;BME280;67434;50.956;6.918;2023-05-12T05:17:54;100942.97;;;13.28;87.64
49473;BME280;67434;50.956;6.918;2023-05-12T05:20:20;100945.16;;;13.36;86.73
49473;BME280;67434;50.956;6.918;2023-05-12T05:22:46;100956.88;;;13.47;85.67
49473;BME280;67434;50.956;6.918;2023-05-12T05:25:12;100959.84;;;13.40;86.85
49473;BME280;67434;50.956;6.918;2023-05-12T05:27:38;100959.03;;;13.40;86.92
49473;BME280;67434;50.956;6.918;2023-05-12T05:30:07;100963.38;;;13.51;86.60
49473;BME280;67434;50.956;6.918;2023-05-12T05:32:51;100965.81;;;13.63;85.59
49473;BME280;67434;50.956;6.918;2023-05-12T05:35:17;100954.16;;;13.62;84.36
49473;BME280;67434;50.956;6.918;2023-05-12T05:37:43;100962.31;;;13.83;83.66
49473;BME280;67434;50.956;6.918;2023-05-12T05:40:08;100959.56;;;13.93;82.82
49473;BME280;67434;50.956;6.918;2023-05-12T05:42:52;100963.94;;;13.89;82.80
49473;BME280;67434;50.956;6.918;2023-05-12T05:45:18;100966.63;;;13.89;82.82
49473;BME280;67434;50.956;6.918;2023-05-12T05:47:44;100978.84;;;13.96;83.65
49473;BME280;67434;50.956;6.918;2023-05-12T05:50:10;100968.81;;;13.97;82.23
49473;BME280;67434;50.956;6.918;2023-05-12T05:52:54;100979.13;;;14.05;82.31
49473;BME280;67434;50.956;6.918;2023-05-12T05:55:20;100985.63;;;14.09;81.62
49473;BME280;67434;50.956;6.918;2023-05-12T05:57:46;100986.16;;;14.11;81.14
49473;BME280;67434;50.956;6.918;2023-05-12T06:00:12;100983.72;;;14.09;80.97
49473;BME280;67434;50.956;6.918;2023-05-12T06:02:39;100989.97;;;14.10;80.96
49473;BME280;67434;50.956;6.918;2023-05-12T06:05:05;100993.50;;;14.11;81.70
49473;BME280;67434;50.956;6.918;2023-05-12T06:07:31;101002.75;;;14.25;81.42
49473;BME280;67434;50.956;6.918;2023-05-12T06:09:56;100996.47;;;14.34;80.71
49473;BME280;67434;50.956;6.918;2023-05-12T06:12:22;101011.72;;;14.30;80.29
49473;BME280;67434;50.956;6.918;2023-05-12T06:14:47;101014.69;;;14.39;80.97
49473;BME280;67434;50.956;6.918;2023-05-12T06:17:13;100999.19;;;14.39;80.30
49473;BME280;67434;50.956;6.918;2023-05-12T06:19:38;101013.88;;;14.49;80.10
49473;BME280;67434;50.956;6.918;2023-05-12T06:22:04;101018.78;;;14.52;79.31
49473;BME280;67434;50.956;6.918;2023-05-12T06:24:29;101021.22;;;14.53;78.81
49473;BME280;67434;50.956;6.918;2023-05-12T06:26:55;101017.63;;;14.68;78.53
49473;BME280;67434;50.956;6.918;2023-05-12T06:29:21;101019.53;;;14.67;77.93
49473;BME280;67434;50.956;6.918;2023-05-12T06:31:46;101024.41;;;14.76;77.51
49473;BME280;67434;50.956;6.918;2023-05-12T06:34:12;101033.63;;;14.85;77.54
49473;BME280;67434;50.956;6.918;2023-05-12T06:36:38;101026.84;;;14.87;77.91
49473;BME280;67434;50.956;6.918;2023-05-12T06:39:04;101025.94;;;15.02;77.75
49473;BME280;67434;50.956;6.918;2023-05-12T06:41:29;101018.25;;;15.14;75.37
49473;BME280;67434;50.956;6.918;2023-05-12T06:43:55;101023.94;;;15.23;75.72
49473;BME280;67434;50.956;6.918;2023-05-12T06:46:21;101037.53;;;15.28;75.73
49473;BME280;67434;50.956;6.918;2023-05-12T06:48:47;101033.72;;;15.29;75.08
49473;BME280;67434;50.956;6.918;2023-05-12T06:51:13;101042.97;;;15.23;75.78
49473;BME280;67434;50.956;6.918;2023-05-12T06:53:41;101042.66;;;15.40;76.41
49473;BME280;67434;50.956;6.918;2023-05-12T06:56:07;101047.16;;;15.54;75.83
49473;BME280;67434;50.956;6.918;2023-05-12T06:58:33;101053.41;;;15.65;75.48
49473;BME280;67434;50.956;6.918;2023-05-12T07:00:59;101045.38;;;15.84;74.78
49473;BME280;67434;50.956;6.918;2023-05-12T07:03:24;101047.59;;;15.77;75.03
49473;BME280;67434;50.956;6.918;2023-05-12T07:05:49;101053.06;;;15.77;74.34
49473;BME280;67434;50.956;6.918;2023-05-12T07:08:15;101062.78;;;15.88;73.24
49473;BME280;67434;50.956;6.918;2023-05-12T07:10:41;101063.59;;;15.88;73.86
49473;BME280;67434;50.956;6.918;2023-05-12T07:13:06;101061.97;;;15.87;73.05
49473;BME280;67434;50.956;6.918;2023-05-12T07:15:32;101069.28;;;15.92;73.08
49473;BME280;67434;50.956;6.918;2023-05-12T07:17:57;101063.28;;;15.95;72.02
49473;BME280;67434;50.956;6.918;2023-05-12T07:20:22;101061.63;;;15.99;71.84
49473;BME280;67434;50.956;6.918;2023-05-12T07:22:48;101054.59;;;15.88;72.57
49473;BME280;67434;50.956;6.918;2023-05-12T07:25:13;101064.91;;;15.96;72.30
49473;BME280;67434;50.956;6.918;2023-05-12T07:27:40;101070.44;;;15.86;72.81
49473;BME280;67434;50.956;6.918;2023-05-12T07:30:06;101066.41;;;15.78;72.21
49473;BME280;67434;50.956;6.918;2023-05-12T07:32:32;101064.78;;;15.77;72.49
49473;BME280;67434;50.956;6.918;2023-05-12T07:34:57;101077.22;;;15.88;72.30
49473;BME280;67434;50.956;6.918;2023-05-12T07:37:23;101075.84;;;15.91;71.69
49473;BME280;67434;50.956;6.918;2023-05-12T07:39:48;101071.72;;;15.93;70.76
49473;BME280;67434;50.956;6.918;2023-05-12T07:42:13;101075.56;;;15.92;71.09
49473;BME280;67434;50.956;6.918;2023-05-12T07:44:39;101081.91;;;15.83;71.91
49473;BME280;67434;50.956;6.918;2023-05-12T07:47:05;101083.53;;;15.84;70.98
49473;BME280;67434;50.956;6.918;2023-05-12T07:49:34;101080.56;;;15.80;70.58
49473;BME280;67434;50.956;6.918;2023-05-12T07:51:59;101083.22;;;15.90;69.94
49473;BME280;67434;50.956;6.918;2023-05-12T07:54:25;101091.69;;;15.89;70.23
49473;BME280;67434;50.956;6.918;2023-05-12T07:56:50;101086.72;;;15.96;70.12
49473;BME280;67434;50.956;6.918;2023-05-12T07:59:16;101097.84;;;16.05;70.34
49473;BME280;67434;50.956;6.918;2023-05-12T08:01:41;101089.81;;;16.18;69.40
49473;BME280;67434;50.956;6.918;2023-05-12T08:04:07;101090.31;;;16.25;68.53
49473;BME280;67434;50.956;6.918;2023-05-12T08:06:32;101088.69;;;16.24;69.19
49473;BME280;67434;50.956;6.918;2023-05-12T08:08:58;101097.84;;;16.39;69.23
49473;BME280;67434;50.956;6.918;2023-05-12T08:11:24;101090.75;;;16.38;69.51
49473;BME280;67434;50.956;6.918;2023-05-12T08:13:53;101090.44;;;16.44;68.54
49473;BME280;67434;50.956;6.918;2023-05-12T08:16:18;101097.59;;;16.64;68.03
49473;BME280;67434;50.956;6.918;2023-05-12T08:18:44;101108.19;;;16.71;66.37
49473;BME280;67434;50.956;6.918;2023-05-12T08:21:12;101103.81;;;16.75;65.92
49473;BME280;67434;50.956;6.918;2023-05-12T08:23:38;101099.47;;;16.69;65.87
49473;BME280;67434;50.956;6.918;2023-05-12T08:26:03;101092.59;;;16.76;66.52
49473;BME280;67434;50.956;6.918;2023-05-12T08:28:29;101093.53;;;16.91;65.93
49473;BME280;67434;50.956;6.918;2023-05-12T08:30:56;101101.44;;;17.16;65.23
49473;BME280;67434;50.956;6.918;2023-05-12T08:33:21;101111.25;;;17.17;65.62
49473;BME280;67434;50.956;6.918;2023-05-12T08:35:46;101102.94;;;17.27;64.39
49473;BME280;67434;50.956;6.918;2023-05-12T08:38:12;101103.69;;;17.09;64.76
49473;BME280;67434;50.956;6.918;2023-05-12T08:40:46;101107.88;;;17.25;64.26
49473;BME280;67434;50.956;6.918;2023-05-12T08:43:22;101107.13;;;17.19;63.94
49473;BME280;67434;50.956;6.918;2023-05-12T08:45:48;101116.72;;;17.17;63.39
49473;BME280;67434;50.956;6.918;2023-05-12T08:48:16;101104.63;;;17.23;63.34
49473;BME280;67434;50.956;6.918;2023-05-12T08:50:43;101115.34;;;17.38;63.46
49473;BME280;67434;50.956;6.918;2023-05-12T08:53:12;101120.72;;;17.67;63.56
49473;BME280;67434;50.956;6.918;2023-05-12T08:55:40;101114.22;;;17.82;62.69
49473;BME280;67434;50.956;6.918;2023-05-12T08:58:07;101123.38;;;18.10;61.46
49473;BME280;67434;50.956;6.918;2023-05-12T09:00:33;101118.81;;;18.05;61.75
49473;BME280;67434;50.956;6.918;2023-05-12T09:03:01;101125.22;;;18.15;61.32
49473;BME280;67434;50.956;6.918;2023-05-12T09:05:29;101128.97;;;18.37;60.59
49473;BME280;67434;50.956;6.918;2023-05-12T09:07:56;101131.59;;;18.29;60.08
49473;BME280;67434;50.956;6.918;2023-05-12T09:10:23;101133.31;;;18.38;59.69
49473;BME280;67434;50.956;6.918;2023-05-12T09:12:51;101121.97;;;18.31;59.69
49473;BME280;67434;50.956;6.918;2023-05-12T09:15:24;101121.28;;;18.21;60.11
49473;BME280;67434;50.956;6.918;2023-05-12T09:17:50;101132.19;;;18.26;59.73
49473;BME280;67434;50.956;6.918;2023-05-12T09:20:16;101129.69;;;18.43;59.28
49473;BME280;67434;50.956;6.918;2023-05-12T09:22:41;101130.25;;;18.59;58.43
49473;BME280;67434;50.956;6.918;2023-05-12T09:25:20;101125.44;;;18.51;58.57
49473;BME280;67434;50.956;6.918;2023-05-12T09:27:53;101129.91;;;18.47;58.60
49473;BME280;67434;50.956;6.918;2023-05-12T09:30:28;101127.25;;;18.41;59.43
49473;BME280;67434;50.956;6.918;2023-05-12T09:33:04;101133.28;;;18.57;58.18
49473;BME280;67434;50.956;6.918;2023-05-12T09:35:30;101139.78;;;18.61;58.83
49473;BME280;67434;50.956;6.918;2023-05-12T09:37:56;101140.47;;;18.53;58.74
49473;BME280;67434;50.956;6.918;2023-05-12T09:40:21;101144.91;;;18.68;59.10
49473;BME280;67434;50.956;6.918;2023-05-12T09:42:46;101140.28;;;18.96;57.51
49473;BME280;67434;50.956;6.918;2023-05-12T09:45:13;101138.03;;;18.84;57.55
49473;BME280;67434;50.956;6.918;2023-05-12T09:47:44;101139.69;;;18.99;57.73
49473;BME280;67434;50.956;6.918;2023-05-12T09:50:09;101144.31;;;18.85;58.52
49473;BME280;67434;50.956;6.918;2023-05-12T09:52:36;101146.78;;;19.00;58.39
49473;BME280;67434;50.956;6.918;2023-05-12T09:55:06;101145.75;;;19.23;57.10
49473;BME280;67434;50.956;6.918;2023-05-12T09:57:35;101141.19;;;19.32;56.46
49473;BME280;67434;50.956;6.918;2023-05-12T10:00:04;101139.78;;;19.35;56.73
49473;BME280;67434;50.956;6.918;2023-05-12T10:02:32;101136.53;;;19.47;56.22
49473;BME280;67434;50.956;6.918;2023-05-12T10:05:01;101142.50;;;19.76;55.10
49473;BME280;67434;50.956;6.918;2023-05-12T10:07:30;101131.84;;;20.11;54.57
49473;BME280;67434;50.956;6.918;2023-05-12T10:09:58;101126.22;;;20.16;53.26
49473;BME280;67434;50.956;6.918;2023-05-12T10:12:25;101127.91;;;20.25;53.65
49473;BME280;67434;50.956;6.918;2023-05-12T10:14:50;101126.97;;;20.08;52.50
49473;BME280;67434;50.956;6.918;2023-05-12T10:17:18;101131.88;;;20.19;52.45
49473;BME280;67434;50.956;6.918;2023-05-12T10:19:45;101125.69;;;20.36;53.04
49473;BME280;67434;50.956;6.918;2023-05-12T10:22:14;101128.75;;;20.35;53.40
49473;BME280;67434;50.956;6.918;2023-05-12T10:24:40;101131.09;;;20.41;51.38
49473;BME280;67434;50.956;6.918;2023-05-12T10:27:06;101133.31;;;20.39;51.04
49473;BME280;67434;50.956;6.918;2023-05-12T10:29:31;101131.47;;;20.48;50.35
49473;BME280;67434;50.956;6.918;2023-05-12T10:31:58;101138.91;;;20.48;49.72
49473;BME280;67434;50.956;6.918;2023-05-12T10:34:35;101128.34;;;20.41;50.62
49473;BME280;67434;50.956;6.918;2023-05-12T10:37:04;101127.66;;;20.58;50.85
49473;BME280;67434;50.956;6.918;2023-05-12T10:39:32;101125.38;;;20.51;50.79
49473;BME280;67434;50.956;6.918;2023-05-12T10:42:06;101121.34;;;20.88;50.76
49473;BME280;67434;50.956;6.918;2023-05-12T10:44:33;101122.84;;;20.95;48.72
49473;BME280;67434;50.956;6.918;2023-05-12T10:46:58;101126.75;;;21.02;48.18
49473;BME280;67434;50.956;6.918;2023-05-12T10:49:34;101133.22;;;20.75;48.75
49473;BME280;67434;50.956;6.918;2023-05-12T10:52:04;101126.72;;;20.40;50.46
49473;BME280;67434;50.956;6.918;2023-05-12T10:54:38;101135.47;;;20.06;51.84
49473;BME280;67434;50.956;6.918;2023-05-12T10:57:11;101126.53;;;19.78;52.27
49473;BME280;67434;50.956;6.918;2023-05-12T10:59:46;101129.50;;;19.68;53.70
49473;BME280;67434;50.956;6.918;2023-05-12T11:02:16;101110.59;;;19.66;53.41
49473;BME280;67434;50.956;6.918;2023-05-12T11:04:52;101129.31;;;19.64;53.72
49473;BME280;67434;50.956;6.918;2023-05-12T11:07:30;101137.66;;;19.59;52.61
49473;BME280;67434;50.956;6.918;2023-05-12T11:09:57;101141.91;;;19.52;53.64
49473;BME280;67434;50.956;6.918;2023-05-12T11:12:28;101138.97;;;19.34;53.86
49473;BME280;67434;50.956;6.918;2023-05-12T11:14:59;101133.47;;;19.62;53.08
49473;BME280;67434;50.956;6.918;2023-05-12T11:17:25;101129.91;;;19.61;53.29
49473;BME280;67434;50.956;6.918;2023-05-12T11:19:50;101131.91;;;19.83;53.31
49473;BME280;67434;50.956;6.918;2023-05-12T11:22:18;101133.03;;;20.05;52.62
49473;BME280;67434;50.956;6.918;2023-05-12T11:24:44;101142.13;;;20.27;50.88
49473;BME280;67434;50.956;6.918;2023-05-12T11:27:14;101136.81;;;20.31;50.81
49473;BME280;67434;50.956;6.918;2023-05-12T11:29:41;101138.72;;;20.44;50.26
49473;BME280;67434;50.956;6.918;2023-05-12T11:32:10;101137.56;;;20.68;50.19
49473;BME280;67434;50.956;6.918;2023-05-12T11:34:37;101127.97;;;20.56;50.32
49473;BME280;67434;50.956;6.918;2023-05-12T11:37:03;101143.69;;;20.65;49.33
49473;BME280;67434;50.956;6.918;2023-05-12T11:39:29;101132.56;;;20.70;48.32
49473;BME280;67434;50.956;6.918;2023-05-12T11:42:16;101135.81;;;20.72;48.55
49473;BME280;67434;50.956;6.918;2023-05-12T11:44:46;101131.13;;;20.72;49.38
49473;BME280;67434;50.956;6.918;2023-05-12T11:47:12;101135.84;;;20.80;48.24
49473;BME280;67434;50.956;6.918;2023-05-12T11:49:49;101125.09;;;20.62;47.70
49473;BME280;67434;50.956;6.918;2023-05-12T11:52:16;101129.72;;;20.52;48.35
49473;BME280;67434;50.956;6.918;2023-05-12T11:54:50;101125.50;;;20.46;50.20
49473;BME280;67434;50.956;6.918;2023-05-12T11:57:33;101123.34;;;20.66;49.42
49473;BME280;67434;50.956;6.918;2023-05-12T12:00:01;101123.81;;;20.99;48.03
49473;BME280;67434;50.956;6.918;2023-05-12T12:02:27;101127.69;;;21.37;47.86
49473;BME280;67434;50.956;6.918;2023-05-12T12:04:52;101124.81;;;21.51;46.72
49473;BME280;67434;50.956;6.918;2023-05-12T12:07:33;101120.81;;;21.66;44.76
49473;BME280;67434;50.956;6.918;2023-05-12T12:10:16;101127.00;;;22.06;43.97
49473;BME280;67434;50.956;6.918;2023-05-12T12:12:42;101124.56;;;22.13;43.23
49473;BME280;67434;50.956;6.918;2023-05-12T12:15:09;101130.72;;;22.10;41.96
49473;BME280;67434;50.956;6.918;2023-05-12T12:17:35;101132.50;;;22.14;42.26
49473;BME280;67434;50.956;6.918;2023-05-12T12:20:00;101133.13;;;22.29;41.65
49473;BME280;67434;50.956;6.918;2023-05-12T12:22:26;101130.69;;;22.44;41.64
49473;BME280;67434;50.956;6.918;2023-05-12T12:24:51;101136.19;;;22.44;41.51
49473;BME280;67434;50.956;6.918;2023-05-12T12:27:17;101129.69;;;22.49;40.92
49473;BME280;67434;50.956;6.918;2023-05-12T12:29:42;101129.22;;;22.47;40.91
49473;BME280;67434;50.956;6.918;2023-05-12T12:32:07;101139.94;;;22.23;41.67
49473;BME280;67434;50.956;6.918;2023-05-12T12:34:33;101135.72;;;21.99;43.32
49473;BME280;67434;50.956;6.918;2023-05-12T12:36:59;101131.38;;;22.07;43.06
49473;BME280;67434;50.956;6.918;2023-05-12T12:39:24;101128.28;;;22.34;41.71
49473;BME280;67434;50.956;6.918;2023-05-12T12:41:50;101133.09;;;22.46;42.26
49473;BME280;67434;50.956;6.918;2023-05-12T12:44:15;101143.81;;;22.48;41.97
49473;BME280;67434;50.956;6.918;2023-05-12T12:46:42;101131.13;;;22.55;40.24
49473;BME280;67434;50.956;6.918;2023-05-12T12:49:08;101142.81;;;22.52;40.94